Terminal Aerodrome Forecast
Issued by NWS

Home | Current Version | Previous Version | Text Only | Print | Product List | Glossary Off
Versions: 1 2 3 4 5 6 7 8 9 10 11 12 13 14 15 16 17 18 19
000 FTUS41 KBOX 312320 TAFFMH TAF KFMH 312320Z 0100/0124 22008KT P6SM FEW250 FM010400 23006KT 1/2SM FG SCT004 FM010700 28004KT 6SM BR SCT004 FM011100 04007KT P6SM FEW250=

USA.gov is the U.S. government's official web portal to all federal, state and local government web resources and services.